aviador You're here:

EPGD Decoded Metar

GDANSK in POLAND
Report Time2017-09-26 07:00:00
UTC Time2017-09-26 07:09:47
Flight Rules vfr VFR
Wind080° at 06 kt
W.Decomp.*RWY 11: 4.9 kt HW 3.4 kt LCW
W.Rank080° ranks 21
Current wind is below 080° avg. (6.8)
Visibility9999 m
Phenomena:N/A
Clouds:Scattered 020 Hf
Expected CloudBase > 400 ft AGL from Temp-Dew spread
CeilingNone
Temp13°C (ISA -1)
Dew Point12°C (94% RH)
AAT11.5°C
QNH1031 hPa
Density Alt-95 ft
Elevation453 ft
Report Wrong Elevation
Raw Report
METAR EPGD 260700Z 08006KT 9999 SCT020 13/12 Q1031=

Extra information for EPGD:More info

Metar Taf Metar & Taf Last 4 Metars F.Rules Stats Wind Profile Meteogram Temp Stats Airport Information Weather charts Add Link Nearby VenuesMetar ALERT Operation Metar Decoded Social comments